Time,TemperatureF,DewpointF,PressureIn,WindDirection,WindDirectionDegrees,WindSpeedMPH,WindSpeedGustMPH,Humidity,HourlyPrecipIn,Conditions,Clouds,dailyrainin,SoftwareType,DateUTC
2013-08-26 00:13:00,71.2,66.0,30.19,SE,139,0.0,3.0,82,0.00,,,0.00,weatherlink.com 1.10,2013-08-26 04:13:00,
2013-08-26 00:28:00,71.5,65.0,30.19,SSE,155,1.0,4.0,81,0.00,,,0.00,weatherlink.com 1.10,2013-08-26 04:28:00,
2013-08-26 00:43:00,71.1,65.0,30.19,South,177,0.0,3.0,82,0.00,,,0.00,weatherlink.com 1.10,2013-08-26 04:43:00,
2013-08-26 00:58:00,70.9,65.0,30.19,NW,311,0.0,2.0,81,0.00,,,0.00,weatherlink.com 1.10,2013-08-26 04:58:00,
2013-08-26 01:13:00,71.0,65.0,30.19,ESE,111,1.0,2.0,80,0.00,,,0.00,weatherlink.com 1.10,2013-08-26 05:13:00,
2013-08-26 01:28:00,71.7,65.0,30.18,SSW,205,0.0,3.0,78,0.00,,,0.00,weatherlink.com 1.10,2013-08-26 05:28:00,
2013-08-26 01:43:00,72.0,64.0,30.17,East,94,0.0,4.0,76,0.00,,,0.00,weatherlink.com 1.10,2013-08-26 05:43:00,
2013-08-26 01:58:00,71.6,63.0,30.16,WSW,249,0.0,1.0,75,0.00,,,0.00,weatherlink.com 1.10,2013-08-26 05:58:00,
2013-08-26 02:13:00,71.2,64.0,30.16,SSW,210,0.0,1.0,78,0.00,,,0.00,weatherlink.com 1.10,2013-08-26 06:13:00,
2013-08-26 02:28:00,71.2,63.0,30.15,NW,325,0.0,2.0,75,0.00,,,0.00,weatherlink.com 1.10,2013-08-26 06:28:00,
2013-08-26 02:43:00,70.7,64.0,30.15,SSW,211,0.0,1.0,78,0.00,,,0.00,weatherlink.com 1.10,2013-08-26 06:43:00,
2013-08-26 02:58:00,70.3,63.0,30.14,SE,125,0.0,3.0,78,0.00,,,0.00,weatherlink.com 1.10,2013-08-26 06:58:00,
2013-08-26 03:13:00,70.7,63.0,30.14,SE,133,0.0,3.0,76,0.00,,,0.00,weatherlink.com 1.10,2013-08-26 07:13:00,
2013-08-26 03:28:00,70.5,63.0,30.14,SE,128,0.0,5.0,77,0.00,,,0.00,weatherlink.com 1.10,2013-08-26 07:28:00,
2013-08-26 03:43:00,70.2,63.0,30.15,West,268,0.0,2.0,77,0.00,,,0.00,weatherlink.com 1.10,2013-08-26 07:43:00,
2013-08-26 03:58:00,69.8,63.0,30.16,SE,135,0.0,3.0,79,0.00,,,0.00,weatherlink.com 1.10,2013-08-26 07:58:00,
2013-08-26 04:13:00,69.0,63.0,30.15,SE,133,0.0,2.0,80,0.00,,,0.00,weatherlink.com 1.10,2013-08-26 08:13:00,
2013-08-26 04:28:00,69.5,62.0,30.16,SE,139,0.0,4.0,78,0.00,,,0.00,weatherlink.com 1.10,2013-08-26 08:28:00,
2013-08-26 04:43:00,70.1,62.0,30.16,SE,128,0.0,4.0,76,0.00,,,0.00,weatherlink.com 1.10,2013-08-26 08:43:00,
2013-08-26 04:58:00,70.1,62.0,30.16,WSW,239,2.0,3.0,76,0.00,,,0.00,weatherlink.com 1.10,2013-08-26 08:58:00,
2013-08-26 05:13:00,70.2,62.0,30.14,ENE,77,0.0,2.0,76,0.00,,,0.00,weatherlink.com 1.10,2013-08-26 09:13:00,
2013-08-26 05:28:00,70.0,63.0,30.14,SSW,210,0.0,2.0,77,0.00,,,0.00,weatherlink.com 1.10,2013-08-26 09:28:00,
2013-08-26 05:43:00,70.0,63.0,30.15,East,79,0.0,4.0,77,0.00,,,0.00,weatherlink.com 1.10,2013-08-26 09:43:00,
2013-08-26 05:58:00,70.3,62.0,30.15,SSE,162,0.0,3.0,76,0.00,,,0.00,weatherlink.com 1.10,2013-08-26 09:58:00,
2013-08-26 06:13:00,70.5,62.0,30.15,East,96,1.0,4.0,75,0.00,,,0.00,weatherlink.com 1.10,2013-08-26 10:13:00,
2013-08-26 06:28:00,70.6,62.0,30.15,WNW,285,0.0,3.0,75,0.00,,,0.00,weatherlink.com 1.10,2013-08-26 10:28:00,
2013-08-26 06:43:00,70.3,62.0,30.15,SE,131,1.0,5.0,75,0.00,,,0.00,weatherlink.com 1.10,2013-08-26 10:43:00,
2013-08-26 06:58:00,70.1,63.0,30.16,West,281,0.0,3.0,77,0.00,,,0.00,weatherlink.com 1.10,2013-08-26 10:58:00,
2013-08-26 07:13:00,69.9,62.0,30.15,SE,140,0.0,2.0,77,0.00,,,0.00,weatherlink.com 1.10,2013-08-26 11:13:00,
2013-08-26 07:28:00,69.5,62.0,30.16,SE,139,0.0,4.0,78,0.00,,,0.00,weatherlink.com 1.10,2013-08-26 11:28:00,
2013-08-26 07:43:00,69.4,63.0,30.16,East,100,0.0,2.0,79,0.00,,,0.00,weatherlink.com 1.10,2013-08-26 11:43:00,
2013-08-26 07:58:00,69.5,63.0,30.16,East,94,0.0,4.0,80,0.00,,,0.00,weatherlink.com 1.10,2013-08-26 11:58:00,
2013-08-26 08:13:00,69.5,63.0,30.16,ENE,70,0.0,2.0,80,0.00,,,0.00,weatherlink.com 1.10,2013-08-26 12:13:00,
2013-08-26 08:28:00,69.7,63.0,30.16,SSW,203,3.0,3.0,80,0.00,,,0.00,weatherlink.com 1.10,2013-08-26 12:28:00,
2013-08-26 08:43:00,70.5,64.0,30.16,East,97,1.0,4.0,79,0.00,,,0.00,weatherlink.com 1.10,2013-08-26 12:43:00,
2013-08-26 08:58:00,71.9,64.0,30.15,ESE,117,1.0,4.0,76,0.00,,,0.00,weatherlink.com 1.10,2013-08-26 12:58:00,
2013-08-26 09:13:00,73.1,65.0,30.15,ENE,58,0.0,7.0,75,0.00,,,0.00,weatherlink.com 1.10,2013-08-26 13:13:00,
2013-08-26 09:28:00,73.2,64.0,30.15,WSW,239,1.0,4.0,74,0.00,,,0.00,weatherlink.com 1.10,2013-08-26 13:28:00,
2013-08-26 09:43:00,73.4,65.0,30.15,ESE,102,1.0,4.0,75,0.00,,,0.00,weatherlink.com 1.10,2013-08-26 13:43:00,
2013-08-26 09:58:00,74.2,66.0,30.16,ESE,109,3.0,4.0,75,0.00,,,0.00,weatherlink.com 1.10,2013-08-26 13:58:00,
2013-08-26 10:13:00,74.8,66.0,30.14,NNW,341,0.0,4.0,75,0.00,,,0.00,weatherlink.com 1.10,2013-08-26 14:13:00,
2013-08-26 10:28:00,75.8,67.0,30.15,ESE,122,0.0,4.0,73,0.00,,,0.00,weatherlink.com 1.10,2013-08-26 14:28:00,
2013-08-26 10:43:00,77.3,68.0,30.14,West,264,0.0,5.0,73,0.00,,,0.00,weatherlink.com 1.10,2013-08-26 14:43:00,
2013-08-26 10:59:00,78.8,68.0,30.14,ESE,111,0.0,3.0,70,0.00,,,0.00,weatherlink.com 1.10,2013-08-26 14:59:00,
2013-08-26 11:14:00,78.7,68.0,30.14,South,169,0.0,5.0,70,0.00,,,0.00,weatherlink.com 1.10,2013-08-26 15:14:00,
2013-08-26 11:29:00,79.9,71.0,30.14,ESE,111,1.0,4.0,73,0.00,,,0.00,weatherlink.com 1.10,2013-08-26 15:29:00,
2013-08-26 11:44:00,81.7,70.0,30.14,SW,231,0.0,5.0,68,0.00,,,0.00,weatherlink.com 1.10,2013-08-26 15:44:00,
2013-08-26 11:59:00,82.3,72.0,30.13,South,180,1.0,4.0,70,0.00,,,0.00,weatherlink.com 1.10,2013-08-26 15:59:00,
2013-08-26 12:14:00,82.3,71.0,30.13,SW,215,0.0,4.0,68,0.00,,,0.00,weatherlink.com 1.10,2013-08-26 16:14:00,
2013-08-26 12:29:00,81.2,71.0,30.12,SE,131,0.0,2.0,71,0.00,,,0.00,weatherlink.com 1.10,2013-08-26 16:29:00,
2013-08-26 12:44:00,80.7,72.0,30.12,ENE,77,0.0,1.0,74,0.00,,,0.00,weatherlink.com 1.10,2013-08-26 16:44:00,
2013-08-26 12:59:00,80.5,71.0,30.11,SE,135,1.0,3.0,73,0.00,,,0.00,weatherlink.com 1.10,2013-08-26 16:59:00,
2013-08-26 13:14:00,80.9,72.0,30.11,SW,235,2.0,4.0,74,0.00,,,0.00,weatherlink.com 1.10,2013-08-26 17:14:00,
2013-08-26 13:29:00,82.6,73.0,30.10,SSW,205,3.0,6.0,73,0.00,,,0.00,weatherlink.com 1.10,2013-08-26 17:29:00,
2013-08-26 13:44:00,82.0,71.0,30.09,NW,322,0.0,3.0,69,0.00,,,0.00,weatherlink.com 1.10,2013-08-26 17:44:00,
2013-08-26 13:59:00,81.0,71.0,30.09,NNW,340,0.0,3.0,71,0.00,,,0.00,weatherlink.com 1.10,2013-08-26 17:59:00,
2013-08-26 14:14:00,80.4,71.0,30.08,SW,214,0.0,4.0,73,0.00,,,0.00,weatherlink.com 1.10,2013-08-26 18:14:00,
2013-08-26 14:29:00,80.5,72.0,30.07,WSW,239,0.0,5.0,75,0.00,,,0.00,weatherlink.com 1.10,2013-08-26 18:29:00,
2013-08-26 14:44:00,80.6,72.0,30.06,SE,128,1.0,5.0,74,0.00,,,0.00,weatherlink.com 1.10,2013-08-26 18:44:00,
2013-08-26 14:59:00,81.1,72.0,30.04,West,269,1.0,5.0,73,0.00,,,0.00,weatherlink.com 1.10,2013-08-26 18:59:00,
2013-08-26 15:14:00,80.9,72.0,30.04,WSW,239,1.0,5.0,74,0.00,,,0.00,weatherlink.com 1.10,2013-08-26 19:14:00,
2013-08-26 15:29:00,81.0,72.0,30.02,SSW,201,0.0,3.0,75,0.00,,,0.00,weatherlink.com 1.10,2013-08-26 19:29:00,
2013-08-26 15:44:00,81.2,74.0,30.03,NNE,13,1.0,3.0,78,0.00,,,0.00,weatherlink.com 1.10,2013-08-26 19:44:00,
2013-08-26 15:59:00,81.6,73.0,30.02,ESE,117,1.0,6.0,75,0.00,,,0.00,weatherlink.com 1.10,2013-08-26 19:59:00,
2013-08-26 16:14:00,83.1,74.0,30.03,West,266,1.0,4.0,73,0.00,,,0.00,weatherlink.com 1.10,2013-08-26 20:14:00,
2013-08-26 16:29:00,83.8,74.0,30.03,SW,226,0.0,5.0,73,0.00,,,0.00,weatherlink.com 1.10,2013-08-26 20:29:00,
2013-08-26 16:44:00,83.4,74.0,30.03,ENE,64,3.0,4.0,72,0.00,,,0.00,weatherlink.com 1.10,2013-08-26 20:44:00,
2013-08-26 16:59:00,82.6,73.0,30.03,East,101,1.0,5.0,72,0.00,,,0.00,weatherlink.com 1.10,2013-08-26 20:59:00,
2013-08-26 17:14:00,82.0,74.0,30.03,ENE,72,0.0,2.0,77,0.00,,,0.00,weatherlink.com 1.10,2013-08-26 21:14:00,
2013-08-26 17:29:00,82.0,74.0,30.03,East,100,0.0,2.0,77,0.00,,,0.00,weatherlink.com 1.10,2013-08-26 21:29:00,
2013-08-26 17:44:00,82.3,74.0,30.03,West,275,0.0,2.0,76,0.00,,,0.00,weatherlink.com 1.10,2013-08-26 21:44:00,
2013-08-26 17:59:00,82.2,74.0,30.03,ESE,118,1.0,3.0,76,0.00,,,0.00,weatherlink.com 1.10,2013-08-26 21:59:00,
2013-08-26 18:14:00,81.9,75.0,30.03,SE,139,0.0,2.0,79,0.00,,,0.00,weatherlink.com 1.10,2013-08-26 22:14:00,
2013-08-26 18:29:00,82.0,74.0,30.03,WSW,243,0.0,3.0,77,0.00,,,0.00,weatherlink.com 1.10,2013-08-26 22:29:00,
2013-08-26 18:45:00,81.7,74.0,30.03,SE,134,1.0,3.0,77,0.00,,,0.00,weatherlink.com 1.10,2013-08-26 22:45:00,
2013-08-26 19:00:00,81.5,74.0,30.02,ESE,114,0.0,2.0,78,0.00,,,0.00,weatherlink.com 1.10,2013-08-26 23:00:00,
2013-08-26 19:15:00,81.1,74.0,30.02,SE,134,0.0,4.0,78,0.00,,,0.00,weatherlink.com 1.10,2013-08-26 23:15:00,
2013-08-26 19:30:00,80.5,74.0,30.02,South,178,0.0,2.0,81,0.00,,,0.00,weatherlink.com 1.10,2013-08-26 23:30:00,
2013-08-26 19:45:00,79.8,74.0,30.02,SSW,212,0.0,2.0,82,0.00,,,0.00,weatherlink.com 1.10,2013-08-26 23:45:00,
2013-08-26 20:00:00,79.2,74.0,30.02,SSE,150,0.0,2.0,83,0.00,,,0.00,weatherlink.com 1.10,2013-08-27 00:00:00,
2013-08-26 20:15:00,78.8,74.0,30.01,SE,134,0.0,1.0,84,0.00,,,0.00,weatherlink.com 1.10,2013-08-27 00:15:00,
2013-08-26 20:30:00,77.9,74.0,30.01,WSW,248,0.0,1.0,86,0.00,,,0.00,weatherlink.com 1.10,2013-08-27 00:30:00,
2013-08-26 20:45:00,77.3,73.0,30.01,SW,221,0.0,1.0,87,0.00,,,0.00,weatherlink.com 1.10,2013-08-27 00:45:00,
2013-08-26 21:00:00,77.2,73.0,30.01,SW,224,0.0,2.0,87,0.00,,,0.00,weatherlink.com 1.10,2013-08-27 01:00:00,
2013-08-26 21:15:00,77.2,73.0,30.01,WNW,288,0.0,3.0,86,0.00,,,0.00,weatherlink.com 1.10,2013-08-27 01:15:00,
2013-08-26 21:30:00,77.5,73.0,30.01,WNW,303,0.0,4.0,85,0.00,,,0.00,weatherlink.com 1.10,2013-08-27 01:30:00,
2013-08-26 21:45:00,77.3,72.0,30.01,South,172,3.0,3.0,84,0.00,,,0.00,weatherlink.com 1.10,2013-08-27 01:45:00,
2013-08-26 22:00:00,77.2,72.0,30.01,West,264,0.0,2.0,84,0.00,,,0.00,weatherlink.com 1.10,2013-08-27 02:00:00,
2013-08-26 22:30:00,76.7,72.0,30.02,West,277,3.0,3.0,85,0.00,,,0.00,weatherlink.com 1.10,2013-08-27 02:30:00,
2013-08-26 22:45:00,77.1,72.0,30.01,SSE,160,1.0,4.0,84,0.00,,,0.00,weatherlink.com 1.10,2013-08-27 02:45:00,
2013-08-26 23:00:00,77.2,72.0,30.01,NE,45,2.0,6.0,84,0.00,,,0.00,weatherlink.com 1.10,2013-08-27 03:00:00,
2013-08-26 23:15:00,77.3,72.0,30.01,WNW,285,1.0,6.0,83,0.00,,,0.00,weatherlink.com 1.10,2013-08-27 03:15:00,
2013-08-26 23:30:00,77.0,72.0,30.00,SE,128,1.0,7.0,84,0.00,,,0.00,weatherlink.com 1.10,2013-08-27 03:30:00,
2013-08-26 23:45:00,76.9,72.0,30.00,SE,130,2.0,5.0,84,0.00,,,0.00,weatherlink.com 1.10,2013-08-27 03:45:00,